Weather reports worldwide

Advertisment
Le Puy, France (7471): temperature & dewpoint: 16.03.2019 18:00:00 - 22.03.2019 18:00:00 (CET)Le Puy, France (7471): temperature 5cm: 16.03.2019 18:00:00 - 22.03.2019 18:00:00 (CET)Le Puy, France (7471): temperature -20cm & temperature -100cm: 16.03.2019 18:00:00 - 22.03.2019 18:00:00 (CET)Le Puy, France (7471): wind speed & gusts: 16.03.2019 18:00:00 - 22.03.2019 18:00:00 (CET)Le Puy, France (7471): wind direction: 16.03.2019 18:00:00 - 22.03.2019 18:00:00 (CET)Le Puy, France (7471): visibility: 16.03.2019 18:00:00 - 22.03.2019 18:00:00 (CET)Le Puy, France (7471): sunshine duration: 16.03.2019 18:00:00 - 22.03.2019 18:00:00 (CET)Le Puy, France (7471): precipitation: 16.03.2019 18:00:00 - 22.03.2019 18:00:00 (CET)
Date & Time tt [°C] td [°C] tt 5cm [°C] tt -20cm [°C] tt -100cm [°C] ff [km/h] ff [kn] fx [km/h] fx [kn] dd vv [km] sd [min] rr [mm]
22.03.2019 18:00:00 16,0 -2,5 16,7 6,0 6,8 14 8 22 12 ENE 20 60 0,0
22.03.2019 17:00:00 17,8 -3,6 20,6 5,9 6,8 13 7 21 11 ENE 20 60 0,0
22.03.2019 16:00:00 18,5 -5,6 22,8 5,6 6,8 5 3 15 8 SE 19 60 0,0
22.03.2019 15:00:00 18,2 -5,8 22,8 5,5 6,8 4 2 17 9 NE 20 60 0,0
22.03.2019 14:00:00 17,6 -5,0 23,5 5,4 6,8 8 4 19 10 NE 20 60 0,0
22.03.2019 13:00:00 16,3 -6,7 21,9 5,4 6,8 5 3 14 8 NNE 20 60 0,0
22.03.2019 12:00:00 14,4 -3,0 21,7 5,4 6,8 4 2 11 6 NE 20 60 0,0
22.03.2019 11:00:00 11,0 0,1 15,4 5,4 6,8 2 1 9 5 NE 20 60 0,0
22.03.2019 10:00:00 7,1 0,3 11,3 5,5 6,8 3 1 6 3 E 20 60 0,0
22.03.2019 09:00:00 4,5 -0,9 7,5 5,6 6,8 0 0 4 2 N 18 60 0,0
22.03.2019 08:00:00 0,0 -2,4 -3,7 5,7 6,8 0 0 18 10 N 16 54 0,0
22.03.2019 07:00:00 -3,8 -5,5 -5,8 5,8 6,8 4 2 7 4 WSW 14 0 0,0
22.03.2019 06:00:00 -3,5 -5,4 -5,2 5,9 6,8 3 2 8 4 WSW 14 0 0,0
22.03.2019 05:00:00 -3,5 -5,2 -5,5 6,0 6,8 4 2 7 4 WSW 14 0 0,0
22.03.2019 04:00:00 -2,8 -4,7 -4,9 6,1 6,9 4 2 6 3 SSW 15 0 0,0
22.03.2019 03:00:00 -2,6 -4,8 -4,6 6,1 6,8 4 2 7 4 W 15 0 0,0
22.03.2019 02:00:00 -1,9 -4,4 -3,6 6,2 6,8 4 2 8 4 SW 15 0 0,0
22.03.2019 01:00:00 -1,4 -3,9 -3,9 6,2 6,8 3 1 8 4 W 16 0 0,0
22.03.2019 00:00:00 -0,9 -3,6 -2,6 6,2 6,9 5 3 8 4 WSW 15 0 0,0
21.03.2019 23:00:00 -0,3 -3,3 -1,9 6,2 6,8 4 2 10 5 WSW 16 0 0,0
21.03.2019 22:00:00 0,9 -2,5 -1,2 6,1 6,8 8 4 9 5 SW 18 0 0,0
21.03.2019 21:00:00 2,1 -2,2 -0,3 6,0 6,8 6 4 8 4 SW 19 0 0,0
21.03.2019 20:00:00 4,5 -2,2 1,7 5,8 6,8 6 3 8 4 W 20 0 0,0
21.03.2019 19:00:00 8,0 -2,1 3,7 5,7 6,8 6 3 17 9 NE 20 21 0,0
21.03.2019 18:00:00 11,3 -2,9 12,5 5,5 6,8 12 7 19 10 NE 20 60 0,0
21.03.2019 17:00:00 13,2 -4,9 17,5 5,3 6,8 9 5 16 9 NNE 20 60 0,0
21.03.2019 16:00:00 13,3 -3,1 19,5 5,1 6,8 7 4 14 7 NE 20 60 0,0
21.03.2019 15:00:00 12,1 -3,7 18,4 5,0 6,8 9 5 16 9 ENE 20 60 0,0
21.03.2019 14:00:00 10,8 -4,9 16,5 4,9 6,8 3 2 11 6 NNW 20 60 0,0
21.03.2019 13:00:00 9,1 -2,5 15,5 5,0 6,8 4 2 13 7 E 20 60 0,0
21.03.2019 12:00:00 7,8 -3,7 15,0 4,9 6,8 4 2 13 7 E 20 60 0,0
21.03.2019 11:00:00 6,2 -2,9 12,2 5,0 6,8 4 2 12 7 ESE 20 60 0,0
21.03.2019 10:00:00 5,0 -2,4 10,1 5,1 6,8 4 2 8 4 ENE 20 60 0,0
21.03.2019 09:00:00 2,9 -3,0 4,8 5,2 6,8 0 0 4 2 N 20 60 0,0
21.03.2019 08:00:00 -0,9 -3,6 -5,3 5,3 6,8 0 0 6 3 N 20 52 0,0
21.03.2019 07:00:00 -4,3 -6,6 -8,0 5,4 6,8 3 2 17 9 WNW 20 0 0,0
21.03.2019 06:00:00 -4,2 -6,5 -6,5 5,5 6,8 6 3 8 5 SW 20 0 0,0
21.03.2019 05:00:00 -3,6 -5,9 -7,6 5,6 6,8 2 1 7 4 W 20 0 0,0
21.03.2019 04:00:00 -3,0 -5,6 -4,8 5,7 6,8 5 3 9 5 SSW 20 0 0,0
21.03.2019 03:00:00 -3,1 -5,9 -5,8 5,7 6,8 5 3 8 5 WSW 20 0 0,0
21.03.2019 02:00:00 -3,1 -6,7 -5,7 5,8 6,8 0 0 8 5 N 20 0 0,0
21.03.2019 01:00:00 -0,3 -4,7 -3,7 5,8 6,8 6 3 11 6 SW 20 0 0,0
21.03.2019 00:00:00 0,2 -5,0 -3,2 5,8 6,8 0 0 9 5 N 20 0 0,0
20.03.2019 23:00:00 0,7 -4,9 -2,7 5,9 6,8 4 2 11 6 W 20 0 0,0
20.03.2019 22:00:00 2,9 -5,5 -0,1 5,8 6,8 8 5 14 7 NNW 20 0 0,0
20.03.2019 21:00:00 2,2 -6,4 -1,6 5,8 6,8 4 2 15 8 NNW 20 0 0,0
20.03.2019 20:00:00 3,3 -7,0 -0,1 5,7 6,8 6 4 24 13 N 20 0 0,0
20.03.2019 19:00:00 5,4 -7,5 3,3 5,6 6,8 17 9 31 17 N 20 20 0,0
20.03.2019 18:00:00 7,5 -8,2 8,5 5,5 6,8 21 11 36 19 NNE 20 60 0,0
20.03.2019 17:00:00 8,9 -7,8 11,8 5,3 6,8 19 10 38 20 NNE 20 60 0,0
20.03.2019 16:00:00 9,2 -6,7 13,3 5,2 6,8 22 12 39 21 NNE 20 60 0,0
20.03.2019 15:00:00 9,0 -7,7 13,5 5,1 6,8 21 11 40 22 N 20 60 0,0
20.03.2019 14:00:00 9,1 -9,0 13,6 5,0 6,8 26 14 45 24 NNE 20 60 0,0
20.03.2019 13:00:00 8,6 -9,4 13,3 5,0 6,8 25 13 45 24 NNE 20 60 0,0
20.03.2019 12:00:00 7,7 -8,4 11,9 5,1 6,8 21 12 41 22 NNE 20 60 0,0
20.03.2019 11:00:00 6,9 -7,2 11,0 5,2 6,8 22 12 41 22 NE 20 60 0,0
20.03.2019 10:00:00 5,3 -6,0 9,6 5,2 6,8 25 13 40 21 NNE 20 60 0,0
20.03.2019 09:00:00 3,4 -3,9 4,7 5,3 6,8 8 4 16 9 N 20 60 0,0
20.03.2019 08:00:00 1,5 -3,4 -0,7 5,4 6,8 11 6 17 9 NNW 20 50 0,0
20.03.2019 07:00:00 0,6 -4,6 -4,2 5,5 6,8 12 7 22 12 NW 20 0 0,0
20.03.2019 06:00:00 -0,4 -4,3 -3,6 5,6 6,8 9 5 13 7 NNW 20 0 0,0
20.03.2019 05:00:00 -0,3 -4,2 -3,6 5,6 6,8 7 4 16 9 NNW 20 0 0,0
20.03.2019 04:00:00 -1,0 -4,7 -4,0 5,7 6,8 8 4 15 8 N 20 0 0,0
20.03.2019 03:00:00 -0,6 -4,8 -3,1 5,8 6,8 4 2 16 9 WNW 20 0 0,0
20.03.2019 02:00:00 1,2 -4,1 -1,8 5,8 6,8 7 4 14 8 NW 20 0 0,0
20.03.2019 01:00:00 1,3 -4,6 -0,9 5,9 6,8 9 5 21 12 NW 20 0 0,0
20.03.2019 00:00:00 1,8 -4,7 -0,6 5,9 6,8 17 9 30 16 NW 20 0 0,0
19.03.2019 23:00:00 2,1 -4,9 -0,3 6,0 6,8 11 6 22 12 WNW 20 0 0,0
19.03.2019 22:00:00 1,2 -5,1 -0,6 5,9 6,7 16 9 24 13 NW 20 0 0,0
19.03.2019 21:00:00 1,5 -4,8 -0,8 6,0 6,8 13 7 25 13 NW 20 0 0,0
19.03.2019 20:00:00 2,3 -4,7 -0,5 5,9 6,8 10 5 19 11 NNW 20 0 0,0
19.03.2019 19:00:00 3,0 -4,5 1,1 5,9 6,8 14 8 32 18 N 20 2 0,0
19.03.2019 18:00:00 5,1 -4,5 5,4 5,9 6,8 16 9 32 17 NNE 20 7 0,0
19.03.2019 17:00:00 5,6 -4,3 5,8 5,8 6,7 17 9 35 19 N 20 14 0,0
19.03.2019 16:00:00 5,8 -3,8 7,3 5,9 6,8 18 10 39 21 N 20 7 0,0
19.03.2019 15:00:00 5,7 -4,2 7,6 5,8 6,8 18 10 32 17 N 20 3 0,0
19.03.2019 14:00:00 4,7 -2,4 5,6 5,8 6,8 18 10 35 19 N 20 6 0,0
19.03.2019 13:00:00 4,1 -1,7 4,7 5,8 6,8 16 9 29 16 N 20 2 0,0
19.03.2019 12:00:00 4,0 -1,8 4,1 5,9 6,7 15 8 26 14 N 20 0 0,0
19.03.2019 11:00:00 3,1 -0,9 3,7 5,9 6,7 17 9 30 16 N 20 6 0,0
19.03.2019 10:00:00 2,9 -0,6 3,6 5,9 6,7 12 6 23 12 N 20 0 0,0
19.03.2019 09:00:00 2,1 -0,2 2,3 6,0 6,7 11 6 21 11 N 20 6 0,0
19.03.2019 08:00:00 1,4 -0,7 -0,2 6,0 6,7 11 6 20 11 NNW 20 3 0,0
19.03.2019 07:00:00 0,4 -1,0 -0,3 6,1 6,7 10 6 19 11 NNW 20 0 0,0
19.03.2019 06:00:00 1,1 -0,4 1,0 6,1 6,7 11 6 18 10 NNW 20 0 0,0
19.03.2019 05:00:00 1,3 -0,5 0,7 6,2 6,7 6 4 10 5 NNW 20 0 0,0
19.03.2019 04:00:00 1,5 -0,7 0,8 6,2 6,8 0 0 7 4 N 20 0 0,0
19.03.2019 03:00:00 1,5 -0,6 1,0 6,2 6,7 0 0 10 6 N 20 0 0,2
19.03.2019 02:00:00 1,5 -0,3 1,0 6,3 6,7 8 4 16 9 NW 20 0 0,0
19.03.2019 01:00:00 1,9 -0,4 2,0 6,3 6,7 11 6 18 10 NW 20 0 0,0
19.03.2019 00:00:00 2,3 -0,8 1,6 6,4 6,7 10 6 16 8 NW 20 0 0,0
18.03.2019 23:00:00 1,9 -1,2 0,8 6,4 6,7 2 1 19 10 S 20 0 0,0
18.03.2019 22:00:00 2,5 -1,1 2,1 6,4 6,7 14 7 23 13 WNW 20 0 0,0
18.03.2019 21:00:00 2,7 -1,3 1,9 6,4 6,7 17 9 26 14 NW 20 0 0,0
18.03.2019 20:00:00 3,2 -0,8 2,6 6,3 6,7 18 10 29 15 NNW 20 0 0,0
18.03.2019 19:00:00 3,6 -1,6 2,8 6,3 6,7 15 8 26 14 N 20 23 0,0
18.03.2019 18:00:00 4,4 -1,2 4,9 6,2 6,7 13 7 40 22 N 20 17 0,0
18.03.2019 17:00:00 5,9 -1,5 6,1 6,2 6,7 22 12 41 22 N 20 18 0,0
18.03.2019 16:00:00 6,9 -4,2 - - - 26 14 39 21 NW 20 - -
18.03.2019 15:00:00 6,2 -1,2 7,9 6,1 6,7 24 13 41 22 N 20 21 0,0
18.03.2019 14:00:00 6,0 -2,6 6,7 6,2 6,7 24 13 36 19 NNW 20 12 0,0
18.03.2019 13:00:00 5,3 -0,5 5,5 6,2 6,7 23 13 43 23 NW 20 5 0,0
18.03.2019 12:00:00 4,3 -1,9 5,8 6,3 6,7 32 18 49 26 NNW 20 7 0,0
18.03.2019 11:00:00 3,4 -1,8 3,5 6,4 6,7 19 11 35 19 NW 20 10 0,0
18.03.2019 10:00:00 2,0 -2,5 1,9 6,4 6,7 20 11 30 16 NW 20 3 0,0
18.03.2019 09:00:00 1,2 -2,9 1,3 6,5 6,7 19 10 33 18 NW 20 0 0,0
18.03.2019 08:00:00 0,7 -3,6 -0,9 6,6 6,7 11 6 19 10 NW 20 0 0,0
18.03.2019 07:00:00 0,5 -4,2 -2,3 6,7 6,7 16 8 29 16 NW 20 0 0,0
18.03.2019 06:00:00 -0,6 -4,5 -2,1 6,8 6,7 9 5 25 13 N 20 0 0,0
18.03.2019 05:00:00 0,7 -4,2 -0,7 6,9 6,7 14 8 36 19 NNW 20 0 0,0
18.03.2019 04:00:00 1,1 -4,0 0,4 6,9 6,7 21 11 46 25 NW 20 0 0,0
18.03.2019 03:00:00 1,9 -3,0 0,7 7,0 6,7 23 13 38 20 WNW 20 0 0,0
18.03.2019 02:00:00 1,3 -2,8 0,5 7,0 6,7 8 5 16 8 W 20 0 0,0
18.03.2019 01:00:00 1,2 -1,5 0,7 7,1 6,7 2 1 6 4 SSW 20 0 0,0
18.03.2019 00:00:00 1,8 -1,8 -0,4 7,2 6,7 5 3 9 5 W 20 0 0,0
17.03.2019 23:00:00 0,8 -2,4 -1,1 7,2 6,7 4 2 7 4 WSW 20 0 0,0
17.03.2019 22:00:00 0,7 -3,0 -1,0 7,2 6,7 3 2 20 11 SW 20 0 0,0
17.03.2019 21:00:00 2,1 -3,0 1,4 7,2 6,7 14 7 34 19 WNW 20 0 0,0
17.03.2019 20:00:00 3,4 -2,2 2,7 7,1 6,7 18 10 39 21 WNW 20 0 0,0
17.03.2019 19:00:00 3,8 -0,8 3,8 7,1 6,7 22 12 46 25 WNW 20 0 0,0
17.03.2019 18:00:00 5,5 -1,9 5,4 7,0 6,6 19 10 54 29 WNW 20 34 0,0
17.03.2019 17:00:00 7,0 0,4 7,2 7,0 6,7 14 8 36 19 WNW 20 45 0,0
17.03.2019 16:00:00 6,1 2,0 5,6 6,9 6,7 26 14 54 29 WNW 20 8 1,0
17.03.2019 15:00:00 9,3 3,9 9,1 6,8 6,7 22 12 59 32 W 20 6 0,0
17.03.2019 14:00:00 10,6 3,4 11,5 6,8 6,6 22 12 48 26 W 20 2 0,0
17.03.2019 13:00:00 10,4 3,0 11,5 6,8 6,6 19 10 49 26 W 20 38 0,0
17.03.2019 12:00:00 9,8 3,1 12,8 6,8 6,6 20 11 47 26 WSW 20 60 0,0
17.03.2019 11:00:00 9,4 2,7 13,2 6,9 6,6 19 11 51 28 WSW 20 60 0,0
17.03.2019 10:00:00 10,6 2,7 13,4 6,9 6,6 29 16 54 29 SW 20 60 0,0
17.03.2019 09:00:00 11,4 -2,1 10,3 7,1 6,6 24 13 40 22 SW 20 46 0,0
17.03.2019 08:00:00 11,4 -5,2 4,5 7,2 6,6 12 7 26 14 SSW 20 44 0,0
17.03.2019 07:00:00 7,4 -5,0 3,6 7,3 6,7 7 4 17 9 S 20 0 0,0
17.03.2019 06:00:00 5,6 -5,7 -0,7 7,4 6,7 8 5 17 9 WSW 20 0 0,0
17.03.2019 05:00:00 4,2 -5,6 -0,5 7,5 6,6 3 2 9 5 ESE 20 0 0,0
17.03.2019 04:00:00 3,4 -5,0 -0,8 7,6 6,6 0 0 7 4 N 20 0 0,0
17.03.2019 03:00:00 4,9 -5,2 0,2 7,6 6,6 3 2 11 6 NNE 20 0 0,0
17.03.2019 02:00:00 6,8 -5,6 0,5 7,7 6,6 0 0 12 7 N 20 0 0,0
17.03.2019 01:00:00 9,1 -6,4 -0,2 7,8 6,7 9 5 19 11 SSE 20 0 0,0
17.03.2019 00:00:00 4,5 -5,0 0,1 7,8 6,6 2 1 12 7 SSE 20 0 0,0
16.03.2019 23:00:00 3,9 -3,4 1,4 7,7 6,7 5 3 11 6 WSW 20 0 0,0
16.03.2019 22:00:00 6,2 -2,7 1,5 7,7 6,6 7 4 14 8 SW 20 0 0,0
16.03.2019 21:00:00 8,5 -3,1 5,1 7,6 6,6 4 2 17 9 SSW 20 0 0,0
16.03.2019 20:00:00 8,9 -4,0 6,9 7,4 6,6 12 6 19 10 SW 20 0 0,0
16.03.2019 19:00:00 12,0 -3,4 8,6 7,2 6,6 6 3 11 6 W 20 29 0,0
16.03.2019 18:00:00 16,9 -2,2 16,2 7,0 6,6 6 3 18 10 SW 20 39 0,0

tt = temperature
td = dewpoint
tt 5cm = temperature 5cm
tt -20cm = temperature -20cm
tt -100cm = temperature -100cm
ff = wind speed
fx = gusts
dd = wind direction
vv = visibility
sd = sunshine duration
rr = precipitation

Next stations